createdAt,value
2023-03-05T00:02:44.231Z,100314.06
2023-03-05T00:07:49.285Z,100292.47
2023-03-05T00:12:52.255Z,100279.53
2023-03-05T00:17:55.249Z,100291.41
2023-03-05T00:22:58.188Z,100269.00
2023-03-05T00:28:01.159Z,100264.63
2023-03-05T00:33:04.479Z,100277.44
2023-03-05T00:38:07.610Z,100277.44
2023-03-05T00:43:10.925Z,100269.78
2023-03-05T00:48:13.896Z,100264.53
2023-03-05T00:53:17.030Z,100286.19
2023-03-05T00:58:20.129Z,100282.81
2023-03-05T01:03:23.073Z,100287.22
2023-03-05T01:08:26.568Z,100286.25
2023-03-05T01:13:30.347Z,100262.13
2023-03-05T01:18:33.690Z,100276.78
2023-03-05T01:23:37.744Z,100296.66
2023-03-05T01:28:41.064Z,100299.06
2023-03-05T01:33:44.780Z,100298.13
2023-03-05T01:38:48.382Z,100289.34
2023-03-05T01:43:53.197Z,100291.88
2023-03-05T01:49:07.018Z,100290.22
2023-03-05T01:54:12.067Z,100274.66
2023-03-05T01:59:15.807Z,100291.09
2023-03-05T02:04:20.412Z,100278.09
2023-03-05T02:09:24.358Z,100279.81
2023-03-05T02:14:27.539Z,100265.69
2023-03-05T02:19:30.579Z,100247.47
2023-03-05T02:24:37.614Z,100246.56
2023-03-05T02:29:42.482Z,100257.59
2023-03-05T02:34:45.576Z,100218.19
2023-03-05T02:39:48.657Z,100226.75
2023-03-05T02:44:51.676Z,100213.75
2023-03-05T02:49:55.588Z,100232.75
2023-03-05T02:55:00.320Z,100231.16
2023-03-05T03:00:07.245Z,100247.63
2023-03-05T03:05:10.654Z,100224.34
2023-03-05T03:10:13.673Z,100241.50
2023-03-05T03:15:18.318Z,100240.56
2023-03-05T03:20:21.738Z,100225.03
2023-03-05T03:25:24.774Z,100225.94
2023-03-05T03:30:30.929Z,100235.97
2023-03-05T03:35:33.983Z,100241.81
2023-03-05T03:40:37.739Z,100225.06
2023-03-05T03:45:42.805Z,100231.91
2023-03-05T03:50:45.825Z,100233.78
2023-03-05T03:55:49.018Z,100241.56
2023-03-05T04:00:51.956Z,100228.41
2023-03-05T04:05:54.930Z,100236.16
2023-03-05T04:10:57.814Z,100248.25
2023-03-05T04:16:00.835Z,100214.47
2023-03-05T04:21:04.167Z,100238.72
2023-03-05T04:26:07.253Z,100241.84
2023-03-05T04:31:10.343Z,100220.91
2023-03-05T04:36:13.453Z,100245.84
2023-03-05T04:41:16.437Z,100228.66
2023-03-05T04:46:19.399Z,100237.84
2023-03-05T04:51:22.276Z,100246.44
2023-03-05T04:56:25.256Z,100221.34
2023-03-05T05:01:28.370Z,100247.75
2023-03-05T05:06:31.478Z,100239.56
2023-03-05T05:11:34.469Z,100229.75
2023-03-05T05:16:37.473Z,100245.94
2023-03-05T05:21:40.501Z,100247.47
2023-03-05T05:26:43.521Z,100235.34
2023-03-05T05:31:46.723Z,100233.97
2023-03-05T05:36:49.650Z,100219.97
2023-03-05T05:41:53.424Z,100245.56
2023-03-05T05:46:56.376Z,100238.63
2023-03-05T05:51:59.754Z,100219.88
2023-03-05T05:57:02.872Z,100225.59
2023-03-05T06:02:08.158Z,100218.34
2023-03-05T06:07:11.214Z,100214.28
2023-03-05T06:12:14.278Z,100201.53
2023-03-05T06:17:28.668Z,100196.28
2023-03-05T06:22:31.710Z,100191.13
2023-03-05T06:27:35.768Z,100196.22
2023-03-05T06:32:38.848Z,100210.84
2023-03-05T06:37:41.832Z,100215.81
2023-03-05T06:42:44.889Z,100207.66
2023-03-05T06:47:47.848Z,100230.72
2023-03-05T06:52:51.373Z,100226.47
2023-03-05T06:57:54.401Z,100214.94
2023-03-05T07:02:57.379Z,100219.94
2023-03-05T07:08:00.342Z,100219.13
2023-03-05T07:13:03.316Z,100198.84
2023-03-05T07:18:06.565Z,100205.28
2023-03-05T07:23:09.549Z,100222.31
2023-03-05T07:28:12.525Z,100220.72
2023-03-05T07:33:15.506Z,100198.13
2023-03-05T07:38:18.432Z,100216.78
2023-03-05T07:43:21.492Z,100218.19
2023-03-05T07:48:26.155Z,100217.06
2023-03-05T07:53:29.168Z,100222.13
2023-03-05T07:58:32.164Z,100198.16
2023-03-05T08:03:35.120Z,100226.28
2023-03-05T08:08:39.704Z,100211.56
2023-03-05T08:13:44.548Z,100226.75
2023-03-05T08:18:48.149Z,100226.56
2023-03-05T08:23:51.091Z,100231.66
2023-03-05T08:28:54.455Z,100244.84
2023-03-05T08:34:00.174Z,100242.63
2023-03-05T08:39:03.865Z,100216.50
2023-03-05T08:44:06.930Z,100230.56
2023-03-05T08:49:11.081Z,100253.00
2023-03-05T08:54:14.167Z,100240.66
2023-03-05T08:59:17.190Z,100244.47
2023-03-05T09:04:20.179Z,100219.81
2023-03-05T09:09:23.475Z,100222.94
2023-03-05T09:14:28.670Z,100246.47
2023-03-05T09:19:31.708Z,100221.22
2023-03-05T09:24:34.759Z,100218.13
2023-03-05T09:29:38.141Z,100196.13
2023-03-05T09:34:41.130Z,100227.66
2023-03-05T09:39:44.159Z,100215.06
2023-03-05T09:45:02.709Z,100219.19
2023-03-05T09:50:37.512Z,100215.22
2023-03-05T09:55:45.101Z,100206.81
2023-03-05T10:00:53.267Z,100217.09
2023-03-05T10:06:02.487Z,100220.72
2023-03-05T10:11:17.392Z,100221.41
2023-03-05T10:16:29.373Z,100248.03
2023-03-05T10:21:43.886Z,100215.72
2023-03-05T10:27:08.477Z,100237.09
2023-03-05T10:32:26.476Z,100237.28
2023-03-05T10:37:41.393Z,100230.56
2023-03-05T10:43:01.671Z,100204.72
2023-03-05T10:48:27.388Z,100214.06
2023-03-05T10:53:38.703Z,100227.00
2023-03-05T10:58:41.667Z,100233.56
2023-03-05T11:03:58.363Z,100252.69
2023-03-05T11:09:29.835Z,100251.00
2023-03-05T11:14:34.439Z,100252.19
2023-03-05T11:19:38.850Z,100259.88
2023-03-05T11:24:42.492Z,100250.38
2023-03-05T11:29:49.694Z,100271.75
2023-03-05T11:34:54.319Z,100243.34
2023-03-05T11:40:19.370Z,100261.38
2023-03-05T11:45:24.060Z,100278.84
2023-03-05T11:50:31.618Z,100272.69
2023-03-05T11:55:34.481Z,100283.38
2023-03-05T12:00:41.785Z,100289.94
2023-03-05T12:05:52.502Z,100279.09
2023-03-05T12:10:56.459Z,100296.16
2023-03-05T12:16:48.729Z,100303.78
2023-03-05T12:21:53.535Z,100289.50
2023-03-05T12:27:06.302Z,100308.28
2023-03-05T12:32:31.797Z,100305.56
2023-03-05T12:37:34.824Z,100311.84
2023-03-05T12:42:37.758Z,100310.31
2023-03-05T12:47:48.863Z,100292.41
2023-03-05T12:52:51.812Z,100308.63
2023-03-05T12:58:04.428Z,100318.44
2023-03-05T13:03:10.236Z,100323.88
2023-03-05T13:08:16.366Z,100318.97
2023-03-05T13:13:21.473Z,100307.22
2023-03-05T13:18:28.161Z,100305.31
2023-03-05T13:23:32.777Z,100322.25
2023-03-05T13:28:37.791Z,100325.00
2023-03-05T13:33:41.526Z,100334.19
2023-03-05T13:38:46.795Z,100338.94
2023-03-05T13:43:51.465Z,100330.16
2023-03-05T13:48:55.202Z,100342.56
2023-03-05T13:53:58.240Z,100347.91
2023-03-05T13:59:01.448Z,100317.88
2023-03-05T14:04:08.749Z,100367.19
2023-03-05T14:09:21.961Z,100356.66
2023-03-05T14:14:26.585Z,100370.44
2023-03-05T14:19:35.100Z,100372.81
2023-03-05T14:24:38.200Z,100368.94
2023-03-05T14:29:46.655Z,100367.56
2023-03-05T14:34:55.595Z,100371.56
2023-03-05T14:40:21.376Z,100350.97
2023-03-05T14:45:43.947Z,100385.66
2023-03-05T14:50:53.673Z,100393.91
2023-03-05T14:55:57.939Z,100402.19
2023-03-05T15:01:00.911Z,100403.00
2023-03-05T15:06:04.275Z,100415.84
2023-03-05T15:11:07.192Z,100388.34
2023-03-05T15:16:15.845Z,100404.81
2023-03-05T15:21:18.978Z,100423.78
2023-03-05T15:26:22.296Z,100419.63
2023-03-05T15:31:25.417Z,100428.22
2023-03-05T15:36:28.494Z,100424.88
2023-03-05T15:41:31.471Z,100437.16
2023-03-05T15:46:35.636Z,100436.38
2023-03-05T15:51:39.050Z,100469.47
2023-03-05T15:56:42.573Z,100480.72
2023-03-05T16:01:50.155Z,100448.81
2023-03-05T16:06:53.334Z,100484.31
2023-03-05T16:11:56.816Z,100474.97
2023-03-05T16:17:03.655Z,100494.16
2023-03-05T16:22:06.584Z,100474.63
2023-03-05T16:27:09.603Z,100484.03
2023-03-05T16:32:12.636Z,100509.16
2023-03-05T16:37:20.796Z,100500.78
2023-03-05T16:42:23.734Z,100520.81
2023-03-05T16:47:26.731Z,100522.72
2023-03-05T16:52:30.649Z,100532.50
2023-03-05T16:57:33.606Z,100514.63
2023-03-05T17:02:36.865Z,100528.09
2023-03-05T17:07:39.854Z,100536.25
2023-03-05T17:12:43.965Z,100531.47
2023-03-05T17:17:47.014Z,100536.03
2023-03-05T17:22:49.980Z,100531.09
2023-03-05T17:27:52.989Z,100541.81
2023-03-05T17:32:56.053Z,100530.78
2023-03-05T17:37:59.286Z,100541.34
2023-03-05T17:43:03.260Z,100554.66
2023-03-05T17:48:06.588Z,100557.47
2023-03-05T17:53:09.965Z,100558.75
2023-03-05T17:58:13.040Z,100575.22
2023-03-05T18:03:16.149Z,100574.59
2023-03-05T18:08:19.280Z,100551.16
2023-03-05T18:13:22.226Z,100572.25
2023-03-05T18:18:25.227Z,100576.97
2023-03-05T18:23:28.236Z,100577.78
2023-03-05T18:28:33.791Z,100564.88
2023-03-05T18:33:39.034Z,100587.50
2023-03-05T18:38:42.046Z,100557.06
2023-03-05T18:43:45.103Z,100572.44
2023-03-05T18:48:48.499Z,100565.94
2023-03-05T18:53:52.215Z,100598.91
2023-03-05T18:58:56.178Z,100589.44
2023-03-05T19:04:00.743Z,100596.97
2023-03-05T19:09:10.150Z,100589.47
2023-03-05T19:14:13.154Z,100588.44
2023-03-05T19:19:20.606Z,100578.38
2023-03-05T19:24:25.190Z,100595.88
2023-03-05T19:29:33.269Z,100567.47
2023-03-05T19:34:37.085Z,100598.09
2023-03-05T19:39:40.020Z,100582.47
2023-03-05T19:44:43.047Z,100600.44
2023-03-05T19:49:45.999Z,100594.09
2023-03-05T19:54:48.992Z,100583.59
2023-03-05T19:59:53.589Z,100586.00
2023-03-05T20:04:57.786Z,100571.28
2023-03-05T20:10:01.122Z,100585.00
2023-03-05T20:15:06.128Z,100575.44
2023-03-05T20:20:09.987Z,100580.50
2023-03-05T20:25:16.610Z,100586.53
2023-03-05T20:30:19.805Z,100552.66
2023-03-05T20:35:23.040Z,100557.66
2023-03-05T20:40:26.901Z,100566.47
2023-03-05T20:45:29.869Z,100575.53
2023-03-05T20:50:34.135Z,100552.44
2023-03-05T20:55:37.288Z,100546.50
2023-03-05T21:00:41.588Z,100568.44
2023-03-05T21:05:44.700Z,100561.03
2023-03-05T21:10:47.654Z,100577.69
2023-03-05T21:15:50.634Z,100582.09
2023-03-05T21:20:53.542Z,100585.66
2023-03-05T21:25:56.601Z,100584.81
2023-03-05T21:31:07.368Z,100577.09
2023-03-05T21:36:10.885Z,100566.00
2023-03-05T21:41:14.434Z,100582.47
2023-03-05T21:46:17.521Z,100576.44
2023-03-05T21:51:22.931Z,100598.19
2023-03-05T21:56:26.637Z,100592.06
2023-03-05T22:01:29.727Z,100578.19
2023-03-05T22:06:32.664Z,100570.44
2023-03-05T22:11:35.608Z,100570.53
2023-03-05T22:16:38.748Z,100596.53
2023-03-05T22:21:41.743Z,100574.84
2023-03-05T22:26:44.826Z,100550.56
2023-03-05T22:31:47.820Z,100552.38
2023-03-05T22:36:50.767Z,100548.13
2023-03-05T22:41:53.751Z,100558.50
2023-03-05T22:46:56.816Z,100559.38
2023-03-05T22:51:59.908Z,100566.44
2023-03-05T22:57:02.852Z,100547.41
2023-03-05T23:02:05.896Z,100541.25
2023-03-05T23:07:08.849Z,100534.25
2023-03-05T23:12:12.778Z,100523.97
2023-03-05T23:17:15.821Z,100539.59
2023-03-05T23:22:19.049Z,100532.63
2023-03-05T23:27:22.090Z,100510.22
2023-03-05T23:32:28.852Z,100499.81
2023-03-05T23:37:31.949Z,100498.97
2023-03-05T23:42:35.105Z,100492.88
2023-03-05T23:47:38.438Z,100521.56
2023-03-05T23:52:43.306Z,100516.31
2023-03-05T23:57:46.844Z,100506.81
